createdAt,value
2018-08-30T00:00:35.754Z,89.23
2018-08-30T00:01:35.691Z,89.43
2018-08-30T00:02:35.681Z,90.24
2018-08-30T00:03:35.672Z,89.77
2018-08-30T00:04:35.684Z,89.43
2018-08-30T00:05:35.655Z,90.03
2018-08-30T00:06:35.652Z,89.53
2018-08-30T00:07:35.630Z,89.47
2018-08-30T00:08:35.636Z,89.73
2018-08-30T00:09:35.673Z,89.32
2018-08-30T00:10:35.610Z,89.83
2018-08-30T00:11:35.580Z,90.54
2018-08-30T00:12:35.568Z,90.08
2018-08-30T00:13:35.564Z,91.46
2018-08-30T00:14:35.552Z,90.18
2018-08-30T00:15:35.560Z,89.63
2018-08-30T00:16:35.530Z,89.53
2018-08-30T00:17:35.515Z,90.24
2018-08-30T00:18:35.541Z,90.48
2018-08-30T00:19:35.491Z,89.77
2018-08-30T00:20:35.480Z,89.67
2018-08-30T00:21:35.477Z,90.99
2018-08-30T00:22:35.458Z,91.09
2018-08-30T00:23:35.453Z,90.48
2018-08-30T00:24:35.434Z,90.89
2018-08-30T00:25:35.431Z,90.93
2018-08-30T00:26:35.417Z,91.19
2018-08-30T00:27:35.418Z,91.13
2018-08-30T00:28:35.419Z,91.03
2018-08-30T00:29:35.378Z,90.99
2018-08-30T00:30:35.388Z,91.34
2018-08-30T00:31:35.352Z,91.44
2018-08-30T00:32:35.341Z,90.93
2018-08-30T00:33:35.382Z,91.13
2018-08-30T00:34:35.320Z,91.34
2018-08-30T00:35:35.318Z,91.85
2018-08-30T00:36:35.390Z,91.50
2018-08-30T00:37:35.285Z,90.89
2018-08-30T00:38:35.273Z,90.99
2018-08-30T00:39:35.270Z,91.30
2018-08-30T00:40:35.282Z,90.69
2018-08-30T00:41:35.290Z,90.79
2018-08-30T00:42:35.245Z,90.89
2018-08-30T00:43:35.229Z,90.48
2018-08-30T00:44:35.243Z,89.87
2018-08-30T00:45:35.224Z,90.48
2018-08-30T00:46:35.186Z,90.89
2018-08-30T00:47:35.226Z,90.79
2018-08-30T00:48:35.163Z,90.58
2018-08-30T00:49:35.171Z,90.79
2018-08-30T00:50:35.146Z,89.67
2018-08-30T00:51:35.134Z,89.67
2018-08-30T00:52:35.142Z,90.18
2018-08-30T00:53:35.122Z,90.79
2018-08-30T00:54:35.102Z,90.69
2018-08-30T00:55:35.119Z,90.69
2018-08-30T00:56:35.072Z,90.69
2018-08-30T00:57:35.103Z,91.09
2018-08-30T00:58:35.055Z,90.89
2018-08-30T00:59:35.069Z,90.89
2018-08-30T01:00:35.036Z,90.79
2018-08-30T01:01:35.025Z,91.09
2018-08-30T01:02:35.008Z,91.09
2018-08-30T01:03:34.998Z,90.58
2018-08-30T01:04:34.985Z,91.19
2018-08-30T01:05:35.000Z,90.99
2018-08-30T01:06:34.961Z,90.69
2018-08-30T01:07:34.993Z,91.19
2018-08-30T01:08:34.945Z,90.48
2018-08-30T01:09:34.939Z,90.48
2018-08-30T01:10:34.916Z,91.09
2018-08-30T01:11:34.922Z,90.99
2018-08-30T01:12:34.892Z,91.60
2018-08-30T01:13:34.903Z,91.30
2018-08-30T01:14:34.870Z,91.19
2018-08-30T01:15:34.857Z,90.79
2018-08-30T01:16:34.849Z,91.09
2018-08-30T01:17:34.858Z,90.89
2018-08-30T01:18:34.837Z,90.28
2018-08-30T01:19:34.836Z,90.89
2018-08-30T01:20:34.804Z,90.69
2018-08-30T01:21:34.789Z,91.39
2018-08-30T01:22:34.781Z,90.89
2018-08-30T01:23:34.787Z,91.09
2018-08-30T01:24:34.763Z,91.30
2018-08-30T01:25:34.803Z,91.19
2018-08-30T01:26:34.744Z,91.60
2018-08-30T01:27:34.724Z,91.39
2018-08-30T01:28:34.715Z,90.18
2018-08-30T01:29:34.715Z,91.09
2018-08-30T01:30:34.688Z,91.09
2018-08-30T01:31:34.700Z,90.99
2018-08-30T01:32:34.663Z,90.89
2018-08-30T01:33:34.663Z,91.09
2018-08-30T01:34:34.641Z,90.89
2018-08-30T01:35:34.661Z,90.93
2018-08-30T01:36:34.626Z,91.74
2018-08-30T01:37:34.609Z,90.89
2018-08-30T01:38:34.607Z,90.89
2018-08-30T01:39:34.653Z,90.89
2018-08-30T01:40:34.598Z,90.69
2018-08-30T01:41:34.568Z,90.79
2018-08-30T01:42:34.553Z,91.19
2018-08-30T01:43:34.568Z,90.89
2018-08-30T01:44:34.529Z,91.39
2018-08-30T01:45:34.545Z,91.19
2018-08-30T01:46:34.505Z,91.09
2018-08-30T01:47:34.494Z,91.09
2018-08-30T01:48:34.513Z,91.09
2018-08-30T01:49:34.472Z,91.50
2018-08-30T01:50:34.468Z,90.79
2018-08-30T01:51:34.471Z,91.09
2018-08-30T01:52:34.440Z,90.89
2018-08-30T01:53:34.426Z,90.58
2018-08-30T01:54:34.423Z,90.79
2018-08-30T01:55:34.447Z,91.13
2018-08-30T01:56:34.393Z,91.85
2018-08-30T01:57:34.403Z,90.73
2018-08-30T01:58:34.391Z,90.93
2018-08-30T01:59:34.384Z,91.70
2018-08-30T02:00:34.356Z,90.99
2018-08-30T02:01:34.400Z,90.99
2018-08-30T02:02:34.326Z,90.89
2018-08-30T02:03:34.333Z,92.00
2018-08-30T02:04:34.316Z,91.60
2018-08-30T02:05:34.340Z,91.70
2018-08-30T02:06:34.279Z,91.70
2018-08-30T02:07:34.287Z,90.89
2018-08-30T02:08:34.260Z,90.83
2018-08-30T02:09:34.267Z,91.09
2018-08-30T02:10:34.234Z,90.48
2018-08-30T02:11:34.224Z,91.09
2018-08-30T02:12:34.250Z,90.99
2018-08-30T02:13:34.221Z,90.89
2018-08-30T02:14:34.230Z,91.34
2018-08-30T02:15:34.196Z,91.09
2018-08-30T02:16:34.170Z,91.70
2018-08-30T02:17:34.158Z,91.09
2018-08-30T02:18:34.152Z,90.93
2018-08-30T02:19:34.134Z,91.54
2018-08-30T02:20:34.124Z,90.99
2018-08-30T02:21:34.135Z,90.89
2018-08-30T02:22:34.120Z,90.79
2018-08-30T02:23:34.094Z,90.69
2018-08-30T02:24:34.089Z,92.00
2018-08-30T02:25:34.068Z,90.79
2018-08-30T02:26:34.070Z,90.62
2018-08-30T02:27:34.044Z,90.89
2018-08-30T02:28:34.033Z,91.09
2018-08-30T02:29:34.080Z,90.89
2018-08-30T02:30:34.017Z,91.60
2018-08-30T02:31:34.003Z,90.48
2018-08-30T02:32:34.023Z,91.13
2018-08-30T02:33:33.980Z,91.50
2018-08-30T02:34:33.969Z,91.39
2018-08-30T02:35:33.953Z,90.89
2018-08-30T02:36:34.006Z,91.09
2018-08-30T02:37:33.935Z,89.98
2018-08-30T02:38:33.943Z,90.58
2018-08-30T02:39:33.936Z,90.79
2018-08-30T02:40:33.900Z,90.99
2018-08-30T02:41:33.888Z,90.38
2018-08-30T02:42:33.908Z,90.89
2018-08-30T02:43:33.867Z,91.70
2018-08-30T02:44:33.884Z,91.54
2018-08-30T02:45:33.847Z,90.53
2018-08-30T02:46:33.829Z,90.99
2018-08-30T02:47:33.826Z,92.05
2018-08-30T02:48:33.824Z,91.19
2018-08-30T02:49:33.842Z,91.50
2018-08-30T02:50:33.809Z,91.34
2018-08-30T02:51:33.781Z,90.89
2018-08-30T02:52:33.767Z,90.73
2018-08-30T02:53:33.788Z,91.80
2018-08-30T02:54:33.745Z,90.93
2018-08-30T02:55:33.729Z,91.34
2018-08-30T02:56:33.756Z,91.64
2018-08-30T02:57:33.705Z,91.54
2018-08-30T02:58:33.779Z,91.54
2018-08-30T02:59:33.683Z,91.70
2018-08-30T03:00:33.674Z,91.13
2018-08-30T03:01:33.671Z,91.09
2018-08-30T03:02:33.685Z,90.48
2018-08-30T03:03:33.642Z,91.13
2018-08-30T03:04:33.661Z,91.64
2018-08-30T03:05:33.615Z,91.70
2018-08-30T03:06:33.606Z,91.13
2018-08-30T03:07:33.593Z,91.85
2018-08-30T03:08:33.606Z,91.74
2018-08-30T03:09:33.578Z,91.54
2018-08-30T03:10:33.590Z,91.54
2018-08-30T03:11:33.557Z,91.58
2018-08-30T03:12:33.539Z,91.74
2018-08-30T03:13:33.527Z,92.09
2018-08-30T03:14:33.541Z,91.68
2018-08-30T03:15:33.513Z,92.09
2018-08-30T03:16:33.489Z,91.74
2018-08-30T03:17:33.521Z,91.54
2018-08-30T03:18:33.472Z,91.85
2018-08-30T03:19:33.475Z,91.44
2018-08-30T03:20:33.469Z,91.74
2018-08-30T03:21:33.439Z,91.78
2018-08-30T03:22:33.435Z,91.85
2018-08-30T03:23:33.443Z,92.09
2018-08-30T03:24:33.428Z,92.19
2018-08-30T03:25:33.415Z,92.05
2018-08-30T03:26:33.402Z,92.76
2018-08-30T03:27:33.373Z,92.14
2018-08-30T03:28:33.364Z,91.74
2018-08-30T03:29:33.343Z,91.85
2018-08-30T03:30:33.351Z,91.85
2018-08-30T03:31:33.338Z,91.74
2018-08-30T03:32:33.312Z,91.74
2018-08-30T03:33:33.357Z,91.74
2018-08-30T03:34:33.289Z,91.68
2018-08-30T03:35:33.351Z,91.85
2018-08-30T03:36:33.273Z,92.86
2018-08-30T03:37:33.299Z,91.85
2018-08-30T03:38:33.243Z,91.64
2018-08-30T03:39:33.248Z,91.13
2018-08-30T03:40:33.247Z,91.74
2018-08-30T03:41:33.225Z,91.74
2018-08-30T03:42:33.199Z,91.94
2018-08-30T03:43:33.196Z,91.54
2018-08-30T03:44:33.182Z,91.68
2018-08-30T03:45:33.221Z,91.74
2018-08-30T03:46:33.175Z,91.64
2018-08-30T03:47:33.169Z,91.54
2018-08-30T03:48:33.159Z,92.55
2018-08-30T03:49:33.127Z,92.05
2018-08-30T03:50:33.142Z,91.64
2018-08-30T03:51:33.112Z,90.93
2018-08-30T03:52:33.089Z,91.85
2018-08-30T03:53:33.079Z,91.74
2018-08-30T03:54:33.113Z,91.44
2018-08-30T03:55:33.063Z,92.14
2018-08-30T03:56:33.048Z,91.85
2018-08-30T03:57:33.043Z,92.05
2018-08-30T03:58:33.019Z,91.64
2018-08-30T03:59:33.006Z,91.58
2018-08-30T04:00:33.048Z,91.85
2018-08-30T04:01:33.001Z,92.19
2018-08-30T04:02:32.971Z,92.09
2018-08-30T04:03:32.974Z,92.65
2018-08-30T04:04:32.954Z,91.74
2018-08-30T04:05:32.986Z,91.99
2018-08-30T04:06:32.938Z,92.80
2018-08-30T04:07:32.921Z,92.55
2018-08-30T04:08:32.921Z,92.90
2018-08-30T04:09:32.918Z,92.25
2018-08-30T04:10:32.901Z,91.74
2018-08-30T04:11:32.898Z,91.94
2018-08-30T04:12:32.863Z,92.76
2018-08-30T04:13:32.855Z,92.35
2018-08-30T04:14:32.835Z,91.85
2018-08-30T04:15:32.869Z,91.85
2018-08-30T04:16:32.816Z,91.74
2018-08-30T04:17:32.826Z,91.85
2018-08-30T04:18:32.802Z,91.89
2018-08-30T04:19:32.796Z,91.64
2018-08-30T04:20:32.770Z,91.89
2018-08-30T04:21:32.761Z,92.90
2018-08-30T04:22:32.785Z,92.90
2018-08-30T04:23:32.748Z,92.80
2018-08-30T04:24:32.722Z,93.00
2018-08-30T04:25:32.728Z,92.86
2018-08-30T04:26:32.711Z,93.16
2018-08-30T04:27:32.700Z,93.37
2018-08-30T04:28:32.684Z,92.55
2018-08-30T04:29:32.691Z,92.45
2018-08-30T04:30:32.661Z,92.90
2018-08-30T04:31:32.738Z,92.90
2018-08-30T04:32:32.666Z,92.80
2018-08-30T04:33:32.622Z,92.90
2018-08-30T04:34:32.611Z,92.70
2018-08-30T04:35:32.609Z,93.10
2018-08-30T04:36:32.591Z,93.21
2018-08-30T04:37:32.627Z,93.25
2018-08-30T04:38:32.572Z,93.41
2018-08-30T04:39:32.568Z,93.30
2018-08-30T04:40:32.580Z,93.61
2018-08-30T04:41:32.546Z,93.21
2018-08-30T04:42:32.545Z,93.30
2018-08-30T04:43:32.517Z,93.06
2018-08-30T04:44:32.523Z,93.30
2018-08-30T04:45:32.495Z,93.21
2018-08-30T04:46:32.478Z,93.51
2018-08-30T04:47:32.517Z,92.80
2018-08-30T04:48:32.460Z,92.60
2018-08-30T04:49:32.472Z,92.86
2018-08-30T04:50:32.443Z,92.45
2018-08-30T04:51:32.428Z,92.86
2018-08-30T04:52:32.439Z,92.09
2018-08-30T04:53:32.398Z,92.19
2018-08-30T04:54:32.398Z,92.96
2018-08-30T04:55:32.421Z,92.19
2018-08-30T04:56:32.365Z,91.99
2018-08-30T04:57:32.357Z,92.80
2018-08-30T04:58:32.361Z,92.90
2018-08-30T04:59:32.352Z,92.94
2018-08-30T05:00:32.320Z,92.60
2018-08-30T05:01:32.334Z,92.90
2018-08-30T05:02:32.336Z,92.80
2018-08-30T05:03:32.295Z,93.30
2018-08-30T05:04:32.288Z,93.30
2018-08-30T05:05:32.269Z,93.45
2018-08-30T05:06:32.258Z,93.51
2018-08-30T05:07:32.242Z,93.55
2018-08-30T05:08:32.285Z,93.76
2018-08-30T05:09:32.220Z,93.35
2018-08-30T05:10:32.220Z,93.86
2018-08-30T05:11:32.244Z,93.45
2018-08-30T05:12:32.182Z,93.55
2018-08-30T05:13:32.172Z,92.94
2018-08-30T05:14:32.243Z,93.45
2018-08-30T05:15:32.177Z,93.51
2018-08-30T05:16:32.181Z,93.61
2018-08-30T05:17:32.150Z,93.21
2018-08-30T05:18:32.120Z,93.61
2018-08-30T05:19:32.115Z,93.21
2018-08-30T05:20:32.104Z,93.10
2018-08-30T05:21:32.089Z,92.49
2018-08-30T05:22:32.101Z,92.09
2018-08-30T05:23:32.062Z,92.90
2018-08-30T05:24:32.185Z,93.00
2018-08-30T05:25:32.039Z,93.00
2018-08-30T05:26:32.060Z,92.64
2018-08-30T05:27:32.033Z,93.35
2018-08-30T05:28:32.009Z,92.94
2018-08-30T05:29:32.015Z,93.35
2018-08-30T05:30:31.982Z,93.35
2018-08-30T05:31:32.032Z,93.51
2018-08-30T05:32:31.982Z,92.84
2018-08-30T05:33:31.949Z,92.70
2018-08-30T05:34:31.944Z,92.90
2018-08-30T05:35:31.999Z,92.70
2018-08-30T05:36:31.930Z,92.90
2018-08-30T05:37:31.923Z,92.70
2018-08-30T05:38:31.898Z,92.70
2018-08-30T05:39:31.898Z,92.90
2018-08-30T05:40:31.871Z,92.19
2018-08-30T05:41:31.882Z,91.94
2018-08-30T05:42:31.862Z,92.86
2018-08-30T05:43:31.839Z,92.55
2018-08-30T05:44:31.879Z,92.14
2018-08-30T05:45:31.828Z,91.74
2018-08-30T05:46:31.945Z,91.74
2018-08-30T05:47:31.816Z,91.94
2018-08-30T05:48:31.780Z,91.85
2018-08-30T05:49:31.790Z,91.89
2018-08-30T05:50:31.758Z,91.89
2018-08-30T05:51:31.756Z,91.68
2018-08-30T05:52:31.741Z,91.78
2018-08-30T05:53:31.752Z,91.99
2018-08-30T05:54:31.762Z,91.78
2018-08-30T05:55:31.700Z,92.29
2018-08-30T05:56:31.696Z,91.78
2018-08-30T05:57:31.681Z,92.80
2018-08-30T05:58:31.670Z,92.19
2018-08-30T05:59:31.684Z,92.80
2018-08-30T06:00:31.645Z,92.86
2018-08-30T06:01:31.640Z,91.54
2018-08-30T06:02:31.623Z,92.25
2018-08-30T06:03:31.660Z,92.86
2018-08-30T06:04:31.601Z,91.24
2018-08-30T06:05:31.617Z,91.24
2018-08-30T06:06:31.582Z,91.74
2018-08-30T06:07:31.568Z,91.74
2018-08-30T06:08:31.559Z,90.93
2018-08-30T06:09:31.545Z,90.73
2018-08-30T06:10:31.564Z,92.05
2018-08-30T06:11:31.536Z,91.19
2018-08-30T06:12:31.522Z,90.93
2018-08-30T06:13:31.499Z,91.13
2018-08-30T06:14:31.487Z,90.53
2018-08-30T06:15:31.486Z,90.58
2018-08-30T06:16:31.469Z,90.73
2018-08-30T06:17:31.501Z,90.62
2018-08-30T06:18:31.469Z,90.48
2018-08-30T06:19:31.447Z,90.83
2018-08-30T06:20:31.437Z,90.93
2018-08-30T06:21:31.413Z,90.93
2018-08-30T06:22:31.398Z,91.24
2018-08-30T06:23:31.392Z,89.92
2018-08-30T06:24:31.392Z,89.67
2018-08-30T06:25:31.373Z,89.57
2018-08-30T06:26:31.382Z,89.98
2018-08-30T06:27:31.345Z,90.69
2018-08-30T06:28:31.330Z,91.50
2018-08-30T06:29:31.322Z,90.69
2018-08-30T06:30:31.346Z,89.67
2018-08-30T06:31:31.299Z,90.08
2018-08-30T06:32:31.290Z,91.30
2018-08-30T06:33:31.279Z,90.48
2018-08-30T06:34:31.268Z,89.26
2018-08-30T06:35:31.252Z,90.03
2018-08-30T06:36:31.292Z,89.73
2018-08-30T06:37:31.230Z,89.63
2018-08-30T06:38:31.257Z,89.53
2018-08-30T06:39:31.247Z,89.12
2018-08-30T06:40:31.195Z,88.56
2018-08-30T06:41:31.197Z,88.96
2018-08-30T06:42:31.196Z,88.76
2018-08-30T06:43:31.190Z,88.56
2018-08-30T06:44:31.150Z,89.57
2018-08-30T06:45:31.214Z,88.25
2018-08-30T06:46:31.136Z,87.95
2018-08-30T06:47:31.137Z,89.67
2018-08-30T06:48:31.179Z,90.89
2018-08-30T06:49:31.108Z,89.17
2018-08-30T06:50:31.099Z,89.57
2018-08-30T06:51:31.104Z,89.47
2018-08-30T06:52:31.059Z,88.66
2018-08-30T06:53:31.046Z,88.66
2018-08-30T06:54:31.047Z,87.74
2018-08-30T06:55:31.046Z,88.05
2018-08-30T06:56:31.122Z,89.98
2018-08-30T06:57:31.007Z,88.66
2018-08-30T06:58:31.006Z,88.46
2018-08-30T06:59:30.981Z,89.47
2018-08-30T07:00:30.972Z,88.35
2018-08-30T07:01:30.978Z,88.25
2018-08-30T07:02:30.959Z,88.96
2018-08-30T07:03:30.936Z,88.86
2018-08-30T07:04:30.925Z,89.06
2018-08-30T07:05:30.910Z,88.66
2018-08-30T07:06:30.991Z,88.15
2018-08-30T07:07:30.914Z,88.66
2018-08-30T07:08:30.923Z,89.06
2018-08-30T07:09:30.869Z,88.46
2018-08-30T07:10:30.858Z,88.56
2018-08-30T07:11:30.857Z,87.91
2018-08-30T07:12:30.835Z,87.54
2018-08-30T07:13:30.840Z,88.05
2018-08-30T07:14:30.888Z,87.65
2018-08-30T07:15:30.867Z,88.05
2018-08-30T07:16:30.823Z,86.94
2018-08-30T07:17:30.786Z,87.65
2018-08-30T07:18:30.770Z,87.99
2018-08-30T07:19:30.807Z,87.85
2018-08-30T07:20:30.813Z,88.90
2018-08-30T07:21:30.751Z,88.25
2018-08-30T07:22:30.722Z,88.96
2018-08-30T07:23:30.741Z,88.15
2018-08-30T07:24:30.708Z,87.95
2018-08-30T07:25:30.710Z,88.46
2018-08-30T07:26:30.699Z,88.92
2018-08-30T07:27:30.700Z,88.05
2018-08-30T07:28:30.705Z,87.60
2018-08-30T07:29:30.641Z,88.01
2018-08-30T07:30:30.654Z,88.21
2018-08-30T07:31:30.619Z,88.31
2018-08-30T07:32:30.619Z,88.01
2018-08-30T07:33:30.599Z,88.82
2018-08-30T07:34:30.623Z,88.01
2018-08-30T07:35:30.578Z,87.10
2018-08-30T07:36:30.564Z,85.94
2018-08-30T07:37:30.596Z,85.74
2018-08-30T07:38:30.546Z,85.64
2018-08-30T07:39:30.569Z,86.65
2018-08-30T07:40:30.583Z,87.05
2018-08-30T07:41:30.514Z,86.15
2018-08-30T07:42:30.497Z,85.64
2018-08-30T07:43:30.500Z,86.15
2018-08-30T07:44:30.596Z,87.97
2018-08-30T07:45:30.462Z,86.35
2018-08-30T07:46:30.480Z,85.64
2018-08-30T07:47:30.440Z,86.45
2018-08-30T07:48:30.426Z,86.00
2018-08-30T07:49:30.438Z,86.21
2018-08-30T07:50:30.407Z,85.33
2018-08-30T07:51:30.420Z,85.44
2018-08-30T07:52:30.390Z,85.03
2018-08-30T07:53:30.386Z,85.24
2018-08-30T07:54:30.428Z,87.05
2018-08-30T07:55:30.372Z,85.64
2018-08-30T07:56:30.340Z,85.33
2018-08-30T07:57:30.356Z,86.41
2018-08-30T07:58:30.315Z,87.32
2018-08-30T07:59:30.311Z,83.98
2018-08-30T08:00:30.327Z,84.48
2018-08-30T08:01:30.296Z,85.25
2018-08-30T08:02:30.273Z,84.75
2018-08-30T08:03:30.262Z,82.83
2018-08-30T08:04:30.267Z,83.90
2018-08-30T08:05:30.267Z,84.00
2018-08-30T08:06:30.230Z,83.19
2018-08-30T08:07:30.227Z,83.90
2018-08-30T08:08:30.208Z,84.23
2018-08-30T08:09:30.196Z,83.36
2018-08-30T08:10:30.200Z,83.36
2018-08-30T08:11:30.178Z,82.21
2018-08-30T08:12:30.230Z,82.91
2018-08-30T08:13:30.146Z,81.80
2018-08-30T08:14:30.171Z,82.71
2018-08-30T08:15:30.125Z,81.20
2018-08-30T08:16:30.137Z,81.50
2018-08-30T08:17:30.100Z,81.87
2018-08-30T08:18:30.090Z,79.14
2018-08-30T08:19:30.092Z,79.94
2018-08-30T08:20:30.068Z,79.44
2018-08-30T08:21:30.109Z,78.97
2018-08-30T08:22:30.081Z,82.98
2018-08-30T08:23:30.035Z,77.73
2018-08-30T08:24:30.024Z,79.14
2018-08-30T08:25:30.050Z,81.36
2018-08-30T08:26:29.998Z,80.96
2018-08-30T08:27:29.995Z,78.94
2018-08-30T08:28:30.021Z,79.21
2018-08-30T08:29:29.967Z,79.36
2018-08-30T08:30:29.970Z,78.70
2018-08-30T08:31:29.945Z,76.98
2018-08-30T08:32:29.930Z,78.86
2018-08-30T08:33:29.927Z,76.10
2018-08-30T08:34:29.921Z,75.70
2018-08-30T08:35:29.902Z,76.34
2018-08-30T08:36:29.889Z,77.25
2018-08-30T08:37:29.879Z,78.92
2018-08-30T08:38:29.864Z,78.72
2018-08-30T08:39:29.867Z,79.93
2018-08-30T08:40:29.855Z,79.73
2018-08-30T08:41:29.840Z,78.22
2018-08-30T08:42:29.856Z,77.95
2018-08-30T08:43:29.820Z,78.06
2018-08-30T08:44:29.797Z,79.67
2018-08-30T08:45:29.808Z,79.67
2018-08-30T08:46:29.795Z,75.84
2018-08-30T08:47:29.766Z,77.21
2018-08-30T08:48:29.784Z,76.07
2018-08-30T08:49:29.745Z,75.46
2018-08-30T08:50:29.734Z,76.07
2018-08-30T08:51:29.737Z,74.66
2018-08-30T08:52:29.710Z,76.23
2018-08-30T08:53:29.699Z,74.93
2018-08-30T08:54:29.705Z,72.57
2018-08-30T08:55:29.675Z,71.67
2018-08-30T08:56:29.664Z,72.11
2018-08-30T08:57:29.667Z,72.34
2018-08-30T08:58:29.641Z,73.55
2018-08-30T08:59:29.658Z,74.05
2018-08-30T09:00:29.656Z,74.82
2018-08-30T09:01:29.754Z,73.32
2018-08-30T09:02:29.597Z,73.38
2018-08-30T09:03:29.590Z,72.88
2018-08-30T09:04:29.611Z,72.47
2018-08-30T09:05:29.587Z,72.44
2018-08-30T09:06:29.606Z,73.44
2018-08-30T09:07:29.604Z,73.91
2018-08-30T09:08:29.532Z,72.34
2018-08-30T09:09:29.554Z,72.84
2018-08-30T09:10:29.506Z,71.23
2018-08-30T09:11:29.514Z,72.54
2018-08-30T09:12:29.505Z,73.44
2018-08-30T09:13:29.491Z,72.94
2018-08-30T09:14:29.572Z,73.58
2018-08-30T09:15:29.464Z,74.79
2018-08-30T09:16:29.442Z,74.58
2018-08-30T09:17:29.448Z,71.26
2018-08-30T09:18:29.540Z,71.36
2018-08-30T09:19:29.421Z,69.89
2018-08-30T09:20:29.445Z,70.29
2018-08-30T09:21:29.383Z,71.30
2018-08-30T09:22:29.403Z,70.70
2018-08-30T09:23:29.382Z,70.32
2018-08-30T09:24:29.357Z,72.74
2018-08-30T09:25:29.341Z,73.14
2018-08-30T09:26:29.331Z,72.85
2018-08-30T09:27:29.350Z,72.54
2018-08-30T09:28:29.337Z,73.05
2018-08-30T09:29:29.307Z,75.06
2018-08-30T09:30:29.285Z,71.30
2018-08-30T09:31:29.272Z,70.73
2018-08-30T09:32:29.303Z,71.84
2018-08-30T09:33:29.256Z,73.25
2018-08-30T09:34:29.239Z,71.53
2018-08-30T09:35:29.244Z,73.14
2018-08-30T09:36:29.221Z,72.54
2018-08-30T09:37:29.209Z,72.54
2018-08-30T09:38:29.221Z,71.13
2018-08-30T09:39:29.194Z,72.34
2018-08-30T09:40:29.177Z,71.64
2018-08-30T09:41:29.203Z,70.83
2018-08-30T09:42:29.148Z,71.73
2018-08-30T09:43:29.184Z,72.34
2018-08-30T09:44:29.140Z,73.32
2018-08-30T09:45:29.116Z,74.79
2018-08-30T09:46:29.105Z,74.29
2018-08-30T09:47:29.110Z,74.99
2018-08-30T09:48:29.118Z,72.27
2018-08-30T09:49:29.250Z,71.23
2018-08-30T09:50:29.078Z,72.64
2018-08-30T09:51:29.064Z,75.02
2018-08-30T09:52:29.040Z,72.41
2018-08-30T09:53:29.050Z,68.71
2018-08-30T09:54:29.053Z,68.91
2018-08-30T09:55:29.007Z,70.06
2018-08-30T09:56:29.015Z,71.06
2018-08-30T09:57:29.061Z,72.57
2018-08-30T09:58:28.974Z,72.37
2018-08-30T09:59:28.961Z,70.73
2018-08-30T10:00:28.951Z,69.59
2018-08-30T10:01:28.943Z,66.94
2018-08-30T10:02:28.959Z,66.20
2018-08-30T10:03:28.928Z,65.30
2018-08-30T10:04:28.906Z,66.28
2018-08-30T10:05:28.893Z,64.94
2018-08-30T10:06:28.885Z,64.21
2018-08-30T10:07:28.875Z,63.70
2018-08-30T10:08:28.883Z,64.81
2018-08-30T10:09:28.877Z,64.40
2018-08-30T10:10:28.836Z,63.73
2018-08-30T10:11:28.839Z,65.37
2018-08-30T10:12:28.822Z,67.28
2018-08-30T10:13:28.836Z,66.31
2018-08-30T10:14:28.795Z,67.74
2018-08-30T10:15:28.785Z,66.57
2018-08-30T10:16:28.801Z,66.57
2018-08-30T10:17:28.775Z,67.91
2018-08-30T10:18:28.782Z,67.91
2018-08-30T10:19:28.766Z,68.82
2018-08-30T10:20:28.737Z,69.45
2018-08-30T10:21:28.742Z,70.26
2018-08-30T10:22:28.704Z,71.26
2018-08-30T10:23:28.732Z,69.25
2018-08-30T10:24:28.689Z,70.66
2018-08-30T10:25:28.787Z,67.34
2018-08-30T10:26:28.658Z,68.65
2018-08-30T10:27:28.648Z,69.15
2018-08-30T10:28:28.637Z,69.56
2018-08-30T10:29:28.627Z,69.42
2018-08-30T10:30:28.677Z,70.29
2018-08-30T10:31:28.680Z,71.30
2018-08-30T10:32:28.614Z,70.59
2018-08-30T10:33:28.591Z,67.38
2018-08-30T10:34:28.571Z,66.17
2018-08-30T10:35:28.562Z,66.41
2018-08-30T10:36:28.569Z,65.77
2018-08-30T10:37:28.539Z,64.07
2018-08-30T10:38:28.565Z,63.96
2018-08-30T10:39:28.515Z,65.97
2018-08-30T10:40:28.510Z,63.90
2018-08-30T10:41:28.492Z,65.71
2018-08-30T10:42:28.499Z,61.27
2018-08-30T10:43:28.476Z,62.27
2018-08-30T10:44:28.492Z,61.57
2018-08-30T10:45:28.455Z,62.10
2018-08-30T10:46:28.438Z,61.83
2018-08-30T10:47:28.462Z,63.53
2018-08-30T10:48:28.429Z,66.24
2018-08-30T10:49:28.523Z,64.87
2018-08-30T10:50:28.429Z,65.34
2018-08-30T10:51:28.382Z,64.01
2018-08-30T10:52:28.370Z,64.88
2018-08-30T10:53:28.365Z,62.37
2018-08-30T10:54:28.363Z,64.34
2018-08-30T10:55:28.338Z,63.17
2018-08-30T10:56:28.357Z,64.07
2018-08-30T10:57:28.330Z,63.17
2018-08-30T10:58:28.309Z,62.60
2018-08-30T10:59:28.298Z,63.78
2018-08-30T11:00:28.292Z,62.57
2018-08-30T11:01:28.274Z,62.27
2018-08-30T11:02:28.262Z,60.97
2018-08-30T11:03:28.289Z,59.16
2018-08-30T11:04:28.402Z,60.53
2018-08-30T11:05:28.242Z,60.14
2018-08-30T11:06:28.217Z,60.64
2018-08-30T11:07:28.204Z,58.53
2018-08-30T11:08:28.191Z,59.20
2018-08-30T11:09:28.216Z,58.40
2018-08-30T11:10:28.170Z,59.41
2018-08-30T11:11:28.176Z,60.38
2018-08-30T11:12:28.156Z,58.98
2018-08-30T11:13:28.168Z,61.45
2018-08-30T11:14:28.123Z,61.55
2018-08-30T11:15:28.122Z,60.05
2018-08-30T11:16:28.151Z,59.68
2018-08-30T11:17:28.109Z,61.28
2018-08-30T11:18:28.089Z,60.48
2018-08-30T11:19:28.144Z,57.63
2018-08-30T11:20:28.060Z,59.13
2018-08-30T11:21:28.046Z,60.74
2018-08-30T11:22:28.041Z,58.23
2018-08-30T11:23:28.043Z,59.13
2018-08-30T11:24:28.034Z,59.16
2018-08-30T11:25:28.017Z,58.89
2018-08-30T11:26:27.992Z,61.33
2018-08-30T11:27:27.981Z,61.02
2018-08-30T11:28:27.976Z,61.43
2018-08-30T11:29:27.962Z,60.85
2018-08-30T11:30:27.957Z,61.15
2018-08-30T11:31:27.956Z,61.05
2018-08-30T11:32:27.939Z,61.29
2018-08-30T11:33:27.917Z,61.15
2018-08-30T11:34:27.907Z,61.99
2018-08-30T11:35:27.907Z,59.38
2018-08-30T11:36:27.881Z,59.88
2018-08-30T11:37:27.953Z,61.05
2018-08-30T11:38:27.883Z,60.85
2018-08-30T11:39:27.848Z,63.33
2018-08-30T11:40:27.835Z,63.84
2018-08-30T11:41:27.900Z,62.53
2018-08-30T11:42:27.829Z,61.90
2018-08-30T11:43:27.990Z,60.02
2018-08-30T11:44:27.791Z,60.72
2018-08-30T11:45:27.779Z,61.83
2018-08-30T11:46:27.770Z,60.69
2018-08-30T11:47:27.759Z,61.87
2018-08-30T11:48:27.750Z,62.64
2018-08-30T11:49:27.748Z,61.11
2018-08-30T11:50:27.740Z,58.48
2018-08-30T11:51:27.715Z,61.22
2018-08-30T11:52:27.762Z,60.32
2018-08-30T11:53:27.691Z,57.12
2018-08-30T11:54:27.699Z,56.65
2018-08-30T11:55:27.678Z,56.45
2018-08-30T11:56:27.667Z,58.68
2018-08-30T11:57:27.679Z,58.48
2018-08-30T11:58:27.637Z,59.58
2018-08-30T11:59:27.628Z,60.35
2018-08-30T12:00:27.630Z,58.35
2018-08-30T12:01:27.601Z,58.78
2018-08-30T12:02:27.591Z,58.28
2018-08-30T12:03:27.611Z,60.51
2018-08-30T12:04:27.568Z,60.14
2018-08-30T12:05:27.558Z,61.04
2018-08-30T12:06:27.582Z,62.24
2018-08-30T12:07:27.536Z,61.54
2018-08-30T12:08:27.623Z,59.83
2018-08-30T12:09:27.570Z,60.57
2018-08-30T12:10:27.652Z,58.56
2018-08-30T12:11:27.541Z,58.69
2018-08-30T12:12:27.498Z,61.72
2018-08-30T12:13:27.465Z,62.63
2018-08-30T12:14:27.457Z,62.36
2018-08-30T12:15:27.448Z,61.25
2018-08-30T12:16:27.461Z,64.60
2018-08-30T12:17:27.474Z,66.41
2018-08-30T12:18:27.443Z,69.49
2018-08-30T12:19:27.403Z,68.01
2018-08-30T12:20:27.403Z,70.16
2018-08-30T12:21:27.381Z,71.87
2018-08-30T12:22:27.408Z,73.41
2018-08-30T12:23:27.373Z,72.54
2018-08-30T12:24:27.363Z,74.76
2018-08-30T12:25:27.337Z,73.14
2018-08-30T12:26:27.323Z,73.28
2018-08-30T12:27:27.320Z,73.25
2018-08-30T12:28:27.422Z,76.00
2018-08-30T12:29:27.321Z,75.60
2018-08-30T12:30:27.316Z,75.30
2018-08-30T12:31:27.330Z,73.99
2018-08-30T12:32:27.273Z,73.68
2018-08-30T12:33:27.261Z,76.00
2018-08-30T12:34:27.295Z,76.20
2018-08-30T12:35:27.296Z,76.61
2018-08-30T12:36:27.212Z,75.60
2018-08-30T12:37:27.263Z,76.10
2018-08-30T12:38:27.190Z,75.34
2018-08-30T12:39:27.210Z,75.60
2018-08-30T12:40:27.366Z,73.92
2018-08-30T12:41:27.231Z,75.23
2018-08-30T12:42:27.259Z,75.03
2018-08-30T12:43:27.346Z,74.63
2018-08-30T12:44:27.153Z,77.04
2018-08-30T12:45:27.144Z,76.40
2018-08-30T12:46:27.161Z,75.23
2018-08-30T12:47:27.184Z,75.84
2018-08-30T12:48:27.128Z,76.20
2018-08-30T12:49:27.099Z,74.99
2018-08-30T12:50:27.199Z,76.20
2018-08-30T12:51:27.540Z,75.96
2018-08-30T12:52:27.139Z,74.66